This is the latest recevied weather packets stored in our database for station/object N9OJR. If no packets are shown the sender has not sent any weather packets the latest 10 day(s).
| Time | Temp. | Humidity | Pressure | Rain* | Wind** | Luminosity | Snow |
|---|---|---|---|---|---|---|---|
| 1777149990 | 11.11° C | 96% | 1008.9 hPa | 0 mm | - | 77 W/m² | - |
| 1777149685 | 11.67° C | 96% | 1008.7 hPa | 0 mm | - | 92 W/m² | - |
| 1777149382 | 11.67° C | 96% | 1008.8 hPa | 0 mm | - | 103 W/m² | - |
| 1777149077 | 11.67° C | 97% | 1008.7 hPa | 0 mm | - | 98 W/m² | - |
| 1777148772 | 11.67° C | 97% | 1008.8 hPa | 0 mm | - | 84 W/m² | - |
| 1777148469 | 11.67° C | 96% | 1008.8 hPa | 0 mm | - | 77 W/m² | - |
| 1777148165 | 11.67° C | 96% | 1008.8 hPa | 0 mm | - | 70 W/m² | - |
| 1777147861 | 11.67° C | 96% | 1008.7 hPa | 0 mm | - | 71 W/m² | - |
| 1777147557 | 12.22° C | 96% | 1008.5 hPa | 0 mm | - | 73 W/m² | - |
| 1777147253 | 12.22° C | 96% | 1008.7 hPa | 0 mm | - | 80 W/m² | - |
| 1777146949 | 12.22° C | 95% | 1008.8 hPa | 0 mm | - | 89 W/m² | - |
| 1777146645 | 12.22° C | 94% | 1008.6 hPa | 0 mm | - | 78 W/m² | - |
| 1777146340 | 12.78° C | 94% | 1008.7 hPa | 0 mm | - | 94 W/m² | - |
| 1777146037 | 12.22° C | 94% | 1008.6 hPa | 0 mm | - | 117 W/m² | - |
| 1777145733 | 12.22° C | 94% | 1008.6 hPa | 0 mm | - | 145 W/m² | - |
| 1777145429 | 12.22° C | 94% | 1008.7 hPa | 0 mm | - | 117 W/m² | - |
| 1777145124 | 12.78° C | 94% | 1008.4 hPa | 0 mm | - | 126 W/m² | - |
| 1777144820 | 12.78° C | 94% | 1008.6 hPa | 0 mm | - | 108 W/m² | - |
| 1777144518 | 12.78° C | 94% | 1008.4 hPa | 0 mm | - | 127 W/m² | - |
| 1777144215 | 12.78° C | 94% | 1008.1 hPa | 0 mm | - | 183 W/m² | - |
| 1777143911 | 12.78° C | 94% | 1008.3 hPa | 0 mm | - | 176 W/m² | - |
| 1777143608 | 12.78° C | 94% | 1008.3 hPa | 0 mm | - | 178 W/m² | - |
| 1777143303 | 12.78° C | 94% | 1008.4 hPa | 0 mm | - | 124 W/m² | - |
| 1777143000 | 12.78° C | 94% | 1008.2 hPa | 0 mm | - | 128 W/m² | - |
| 1777142695 | 12.78° C | 94% | 1008.5 hPa | 0 mm | - | 94 W/m² | - |
* Rain latest hour (hover to see other rain measurements)
** Current wind speed in m/s (hover to see current wind gust speed)